createdAt,value
2023-04-18T00:01:55.766Z,3.20
2023-04-18T00:04:24.132Z,3.20
2023-04-18T00:06:52.636Z,3.50
2023-04-18T00:09:20.876Z,3.40
2023-04-18T00:11:49.217Z,3.70
2023-04-18T00:14:17.589Z,3.50
2023-04-18T00:16:46.473Z,3.30
2023-04-18T00:19:14.760Z,3.40
2023-04-18T00:21:45.075Z,3.40
2023-04-18T00:24:13.616Z,3.70
2023-04-18T00:26:42.000Z,3.40
2023-04-18T00:29:10.111Z,3.60
2023-04-18T00:31:38.181Z,3.80
2023-04-18T00:34:06.344Z,3.40
2023-04-18T00:36:34.439Z,3.20
2023-04-18T00:39:02.896Z,3.90
2023-04-18T00:41:31.491Z,3.40
2023-04-18T00:43:59.883Z,3.80
2023-04-18T00:46:28.476Z,3.50
2023-04-18T00:48:56.758Z,3.40
2023-04-18T00:51:24.874Z,3.20
2023-04-18T00:53:53.090Z,3.30
2023-04-18T00:56:23.881Z,2.70
2023-04-18T00:58:51.860Z,2.70
2023-04-18T01:01:20.002Z,3.00
2023-04-18T01:03:48.322Z,2.90
2023-04-18T01:06:16.460Z,2.40
2023-04-18T01:08:44.917Z,2.70
2023-04-18T01:11:13.189Z,2.60
2023-04-18T01:13:41.485Z,3.00
2023-04-18T01:16:09.658Z,2.60
2023-04-18T01:18:40.482Z,3.00
2023-04-18T01:21:09.435Z,2.70
2023-04-18T01:23:37.732Z,2.90
2023-04-18T01:26:07.113Z,3.30
2023-04-18T01:28:36.834Z,3.00
2023-04-18T01:31:05.358Z,3.20
2023-04-18T01:33:33.638Z,3.00
2023-04-18T01:36:01.908Z,3.10
2023-04-18T01:38:33.235Z,2.80
2023-04-18T01:41:02.603Z,3.10
2023-04-18T01:43:30.989Z,3.50
2023-04-18T01:45:59.059Z,3.10
2023-04-18T01:48:27.130Z,3.40
2023-04-18T01:50:55.415Z,2.80
2023-04-18T01:53:24.191Z,3.10
2023-04-18T01:55:52.312Z,3.00
2023-04-18T01:58:23.780Z,2.80
2023-04-18T02:00:52.778Z,3.10
2023-04-18T02:03:22.822Z,2.90
2023-04-18T02:05:51.773Z,3.10
2023-04-18T02:08:19.864Z,3.60
2023-04-18T02:10:47.958Z,3.00
2023-04-18T02:13:16.074Z,3.10
2023-04-18T02:15:46.131Z,3.00
2023-04-18T02:18:17.542Z,2.90
2023-04-18T02:20:45.728Z,2.70
2023-04-18T02:23:22.620Z,3.00
2023-04-18T02:25:50.985Z,3.00
2023-04-18T02:28:19.102Z,3.20
2023-04-18T02:30:47.174Z,3.10
2023-04-18T02:33:15.233Z,3.40
2023-04-18T02:35:43.520Z,3.20
2023-04-18T02:38:11.702Z,3.00
2023-04-18T02:40:39.867Z,3.20
2023-04-18T02:43:08.298Z,3.20
2023-04-18T02:45:36.339Z,2.90
2023-04-18T02:48:05.133Z,3.40
2023-04-18T02:50:35.567Z,3.60
2023-04-18T02:53:04.008Z,3.70
2023-04-18T02:55:41.945Z,3.00
2023-04-18T02:58:10.106Z,3.40
2023-04-18T03:00:58.351Z,3.70
2023-04-18T03:03:45.672Z,2.90
2023-04-18T03:06:34.006Z,3.00
2023-04-18T03:09:03.726Z,4.10
2023-04-18T03:11:33.336Z,3.30
2023-04-18T03:14:01.713Z,3.10
2023-04-18T03:16:35.914Z,3.10
2023-04-18T03:19:05.516Z,3.70
2023-04-18T03:21:34.936Z,2.90
2023-04-18T03:24:02.989Z,2.90
2023-04-18T03:26:31.161Z,2.90
2023-04-18T03:28:59.454Z,2.60
2023-04-18T03:31:27.636Z,2.50
2023-04-18T03:33:55.993Z,2.80
2023-04-18T03:36:25.556Z,2.70
2023-04-18T03:38:55.229Z,2.90
2023-04-18T03:41:24.973Z,3.50
2023-04-18T03:43:53.196Z,4.00
2023-04-18T03:46:22.265Z,3.90
2023-04-18T03:48:51.868Z,4.10
2023-04-18T03:51:20.340Z,4.10
2023-04-18T03:53:48.440Z,4.50
2023-04-18T03:56:18.122Z,3.60
2023-04-18T03:58:49.609Z,3.60
2023-04-18T04:01:17.898Z,3.90
2023-04-18T04:03:46.799Z,4.00
2023-04-18T04:06:15.683Z,3.60
2023-04-18T04:08:45.579Z,4.00
2023-04-18T04:11:13.832Z,4.20
2023-04-18T04:13:42.339Z,4.00
2023-04-18T04:16:11.347Z,3.90
2023-04-18T04:18:39.597Z,3.90
2023-04-18T04:21:08.357Z,4.30
2023-04-18T04:23:49.905Z,4.20
2023-04-18T04:26:37.768Z,3.60
2023-04-18T04:29:11.009Z,3.90
2023-04-18T04:31:39.700Z,4.00
2023-04-18T04:34:08.988Z,4.20
2023-04-18T04:36:37.349Z,4.10
2023-04-18T04:39:06.713Z,3.70
2023-04-18T04:41:44.464Z,4.30
2023-04-18T04:44:14.480Z,3.70
2023-04-18T04:46:45.040Z,4.30
2023-04-18T04:49:19.054Z,4.50
2023-04-18T04:51:47.243Z,4.20
2023-04-18T04:54:17.937Z,4.80
2023-04-18T04:56:46.173Z,5.90
2023-04-18T04:59:14.682Z,4.80
2023-04-18T05:01:47.041Z,4.30
2023-04-18T05:04:18.683Z,4.60
2023-04-18T05:06:47.087Z,4.10
2023-04-18T05:09:15.368Z,3.90
2023-04-18T05:11:43.546Z,4.00
2023-04-18T05:14:13.027Z,3.80
2023-04-18T05:16:41.812Z,3.90
2023-04-18T05:19:09.899Z,3.90
2023-04-18T05:21:38.176Z,4.10
2023-04-18T05:24:06.765Z,4.10
2023-04-18T05:26:35.445Z,4.30
2023-04-18T05:29:03.616Z,4.70
2023-04-18T05:31:31.680Z,4.50
2023-04-18T05:34:00.194Z,4.50
2023-04-18T05:36:28.718Z,3.90
2023-04-18T05:38:56.831Z,4.30
2023-04-18T05:41:24.902Z,5.90
2023-04-18T05:44:04.337Z,4.50
2023-04-18T05:46:33.782Z,4.10
2023-04-18T05:49:02.656Z,4.10
2023-04-18T05:51:32.157Z,4.20
2023-04-18T05:54:00.522Z,4.30
2023-04-18T05:56:29.044Z,3.80
2023-04-18T05:58:57.356Z,4.00
2023-04-18T06:01:25.528Z,4.00
2023-04-18T06:03:55.101Z,3.80
2023-04-18T06:06:23.730Z,3.90
2023-04-18T06:08:51.816Z,3.60
2023-04-18T06:11:23.243Z,3.30
2023-04-18T06:13:51.376Z,3.40
2023-04-18T06:16:19.920Z,3.10
2023-04-18T06:18:48.184Z,3.30
2023-04-18T06:21:16.362Z,3.50
2023-04-18T06:23:44.529Z,3.30
2023-04-18T06:26:12.755Z,3.20
2023-04-18T06:28:41.394Z,3.50
2023-04-18T06:31:09.505Z,3.00
2023-04-18T06:33:38.157Z,3.30
2023-04-18T06:36:07.452Z,3.70
2023-04-18T06:38:35.726Z,3.60
2023-04-18T06:41:04.231Z,3.00
2023-04-18T06:43:32.378Z,3.30
2023-04-18T06:46:05.802Z,3.30
2023-04-18T06:48:34.057Z,3.50
2023-04-18T06:51:03.135Z,3.30
2023-04-18T06:53:31.424Z,3.60
2023-04-18T06:55:59.629Z,3.30
2023-04-18T06:58:27.689Z,3.70
2023-04-18T07:00:56.095Z,3.70
2023-04-18T07:03:24.507Z,3.20
2023-04-18T07:05:52.715Z,2.90
2023-04-18T07:08:20.871Z,3.00
2023-04-18T07:10:58.155Z,2.80
2023-04-18T07:13:29.305Z,3.30
2023-04-18T07:15:57.760Z,3.00
2023-04-18T07:18:37.449Z,2.90
2023-04-18T07:21:07.939Z,3.30
2023-04-18T07:23:37.149Z,3.90
2023-04-18T07:26:06.176Z,4.00
2023-04-18T07:28:34.522Z,3.60
2023-04-18T07:31:03.852Z,3.10
2023-04-18T07:33:33.939Z,2.80
2023-04-18T07:36:03.027Z,2.80
2023-04-18T07:38:31.413Z,2.90
2023-04-18T07:41:00.238Z,2.20
2023-04-18T07:43:35.700Z,2.60
2023-04-18T07:46:03.778Z,2.50
2023-04-18T07:48:34.673Z,2.40
2023-04-18T07:51:03.892Z,2.30
2023-04-18T07:53:32.337Z,2.40
2023-04-18T07:56:00.816Z,2.90
2023-04-18T07:58:29.372Z,2.00
2023-04-18T08:00:57.516Z,2.20
2023-04-18T08:03:27.945Z,2.10
2023-04-18T08:05:56.915Z,2.40
2023-04-18T08:08:25.173Z,2.40
2023-04-18T08:10:56.352Z,2.30
2023-04-18T08:13:25.039Z,1.90
2023-04-18T08:15:53.682Z,2.10
2023-04-18T08:18:23.317Z,2.10
2023-04-18T08:20:54.863Z,2.10
2023-04-18T08:23:23.115Z,1.90
2023-04-18T08:25:51.734Z,2.20
2023-04-18T08:28:19.951Z,2.40
2023-04-18T08:30:49.311Z,2.10
2023-04-18T08:33:18.775Z,1.90
2023-04-18T08:35:46.847Z,2.20
2023-04-18T08:38:16.274Z,1.90
2023-04-18T08:40:47.396Z,2.30
2023-04-18T08:43:15.978Z,2.00
2023-04-18T08:45:44.710Z,1.80
2023-04-18T08:48:15.376Z,1.70
2023-04-18T08:50:44.071Z,1.90
2023-04-18T08:53:12.365Z,1.60
2023-04-18T08:55:42.436Z,1.70
2023-04-18T08:58:16.883Z,2.00
2023-04-18T09:00:52.659Z,1.80
2023-04-18T09:03:44.253Z,1.80
2023-04-18T09:06:19.143Z,2.00
2023-04-18T09:08:58.933Z,2.00
2023-04-18T09:11:29.636Z,2.00
2023-04-18T09:13:59.246Z,1.90
2023-04-18T09:16:31.440Z,2.00
2023-04-18T09:19:14.136Z,1.80
2023-04-18T09:21:46.328Z,1.90
2023-04-18T09:24:24.167Z,1.80
2023-04-18T09:26:54.123Z,1.90
2023-04-18T09:29:23.420Z,1.70
2023-04-18T09:32:01.440Z,2.10
2023-04-18T09:34:29.870Z,1.70
2023-04-18T09:37:08.222Z,1.70
2023-04-18T09:39:42.161Z,1.70
2023-04-18T09:42:14.029Z,1.90
2023-04-18T09:45:06.137Z,2.20
2023-04-18T09:47:36.825Z,1.90
2023-04-18T09:50:11.925Z,1.60
2023-04-18T09:52:41.381Z,2.00
2023-04-18T09:55:13.899Z,1.70
2023-04-18T09:57:47.340Z,1.80
2023-04-18T10:00:26.725Z,1.80
2023-04-18T10:03:08.207Z,1.80
2023-04-18T10:05:37.760Z,1.60
2023-04-18T10:08:06.406Z,1.80
2023-04-18T10:10:34.723Z,1.80
2023-04-18T10:13:02.911Z,1.90
2023-04-18T10:15:31.272Z,1.90
2023-04-18T10:18:05.119Z,2.30
2023-04-18T10:20:35.461Z,2.00
2023-04-18T10:23:36.037Z,2.00
2023-04-18T10:26:05.637Z,1.70
2023-04-18T10:28:59.084Z,1.50
2023-04-18T10:31:28.590Z,1.90
2023-04-18T10:36:32.531Z,2.00
2023-04-18T10:39:04.044Z,2.10
2023-04-18T10:41:33.250Z,1.90
2023-04-18T10:44:10.388Z,1.60
2023-04-18T10:46:53.643Z,1.60
2023-04-18T10:49:27.791Z,1.90
2023-04-18T10:52:00.939Z,1.90
2023-04-18T10:54:59.205Z,2.00
2023-04-18T10:57:40.116Z,2.20
2023-04-18T11:00:11.675Z,1.50
2023-04-18T11:02:40.496Z,1.70
2023-04-18T11:05:09.934Z,2.20
2023-04-18T11:07:53.802Z,1.60
2023-04-18T11:10:26.757Z,1.60
2023-04-18T11:12:56.132Z,1.70
2023-04-18T11:15:25.174Z,1.70
2023-04-18T11:18:01.451Z,2.00
2023-04-18T11:20:30.369Z,2.10
2023-04-18T11:22:59.860Z,1.80
2023-04-18T11:25:32.311Z,1.60
2023-04-18T11:28:01.230Z,2.60
2023-04-18T11:30:36.957Z,1.90
2023-04-18T11:33:07.587Z,2.00
2023-04-18T11:35:39.689Z,1.80
2023-04-18T11:38:08.271Z,2.20
2023-04-18T11:40:37.133Z,1.80
2023-04-18T11:43:06.837Z,1.90
2023-04-18T11:45:41.562Z,1.70
2023-04-18T11:48:12.814Z,2.30
2023-04-18T11:50:41.052Z,2.30
2023-04-18T11:53:09.150Z,2.00
2023-04-18T11:55:37.327Z,1.70
2023-04-18T11:58:07.036Z,2.10
2023-04-18T12:00:46.916Z,2.10
2023-04-18T12:03:16.754Z,1.90
2023-04-18T12:05:45.564Z,1.80
2023-04-18T12:08:22.866Z,2.00
2023-04-18T12:10:53.086Z,1.70
2023-04-18T12:13:26.518Z,2.10
2023-04-18T12:15:54.980Z,1.80
2023-04-18T12:18:23.529Z,2.00
2023-04-18T12:21:13.919Z,2.10
2023-04-18T12:23:46.105Z,1.80
2023-04-18T12:26:23.066Z,2.00
2023-04-18T12:28:58.545Z,2.60
2023-04-18T12:31:49.796Z,1.90
2023-04-18T12:34:18.274Z,2.20
2023-04-18T12:36:47.072Z,2.30
2023-04-18T12:39:21.375Z,2.30
2023-04-18T12:41:52.880Z,2.30
2023-04-18T12:44:38.125Z,2.20
2023-04-18T12:47:19.407Z,2.00
2023-04-18T12:49:50.504Z,2.50
2023-04-18T12:52:21.199Z,1.90
2023-04-18T12:54:52.999Z,2.10
2023-04-18T12:57:25.996Z,2.30
2023-04-18T13:00:06.575Z,2.00
2023-04-18T13:02:37.607Z,1.70
2023-04-18T13:05:09.820Z,2.20
2023-04-18T13:07:40.641Z,2.10
2023-04-18T13:10:21.893Z,2.00
2023-04-18T13:12:50.981Z,2.10
2023-04-18T13:15:23.012Z,2.40
2023-04-18T13:17:56.805Z,2.10
2023-04-18T13:20:25.704Z,1.90
2023-04-18T13:22:54.033Z,1.90
2023-04-18T13:25:22.990Z,2.10
2023-04-18T13:27:58.663Z,2.30
2023-04-18T13:30:26.997Z,2.10
2023-04-18T13:32:55.360Z,2.10
2023-04-18T13:35:23.756Z,1.90
2023-04-18T13:37:52.227Z,2.20
2023-04-18T13:40:20.879Z,1.90
2023-04-18T13:42:51.731Z,1.80
2023-04-18T13:45:20.864Z,2.30
2023-04-18T13:47:49.256Z,2.10
2023-04-18T13:50:17.497Z,1.90
2023-04-18T13:52:48.227Z,2.20
2023-04-18T13:55:16.597Z,2.40
2023-04-18T13:57:45.025Z,2.10
2023-04-18T14:00:14.448Z,1.80
2023-04-18T14:02:42.694Z,2.20
2023-04-18T14:05:11.115Z,2.10
2023-04-18T14:07:39.585Z,2.10
2023-04-18T14:10:08.209Z,1.90
2023-04-18T14:12:36.332Z,2.10
2023-04-18T14:15:05.052Z,1.70
2023-04-18T14:17:33.470Z,1.90
2023-04-18T14:20:08.865Z,2.00
2023-04-18T14:22:37.030Z,2.00
2023-04-18T14:25:05.784Z,2.00
2023-04-18T14:27:34.121Z,2.50
2023-04-18T14:30:02.385Z,1.80
2023-04-18T14:32:30.539Z,2.10
2023-04-18T14:34:59.319Z,2.20
2023-04-18T14:37:27.566Z,2.10
2023-04-18T14:39:55.865Z,2.20
2023-04-18T14:42:27.299Z,2.20
2023-04-18T14:44:55.901Z,2.90
2023-04-18T14:47:31.080Z,2.40
2023-04-18T14:49:59.556Z,2.40
2023-04-18T14:52:33.132Z,2.10
2023-04-18T14:55:01.484Z,2.00
2023-04-18T14:57:35.642Z,2.00
2023-04-18T15:00:10.162Z,2.10
2023-04-18T15:02:41.790Z,2.00
2023-04-18T15:05:20.743Z,1.90
2023-04-18T15:07:51.143Z,2.20
2023-04-18T15:10:22.766Z,2.20
2023-04-18T15:12:54.087Z,2.40
2023-04-18T15:15:22.855Z,2.20
2023-04-18T15:17:51.203Z,2.50
2023-04-18T15:20:30.487Z,2.30
2023-04-18T15:23:18.606Z,2.50
2023-04-18T15:25:55.748Z,2.40
2023-04-18T15:28:29.258Z,2.40
2023-04-18T15:30:57.518Z,2.30
2023-04-18T15:33:31.300Z,2.00
2023-04-18T15:36:15.868Z,2.50
2023-04-18T15:38:52.905Z,2.20
2023-04-18T15:41:24.310Z,2.00
2023-04-18T15:43:53.256Z,2.10
2023-04-18T15:46:22.304Z,2.20
2023-04-18T15:48:53.403Z,2.20
2023-04-18T15:51:33.225Z,2.10
2023-04-18T15:54:04.574Z,2.40
2023-04-18T15:56:37.002Z,2.70
2023-04-18T15:59:11.109Z,2.60
2023-04-18T16:01:45.250Z,2.80
2023-04-18T16:04:17.498Z,2.60
2023-04-18T16:06:48.389Z,2.90
2023-04-18T16:09:16.735Z,1.80
2023-04-18T16:11:45.602Z,2.40
2023-04-18T16:14:33.770Z,2.40
2023-04-18T16:17:05.303Z,2.40
2023-04-18T16:19:40.105Z,2.30
2023-04-18T16:22:16.176Z,2.40
2023-04-18T16:24:53.524Z,2.50
2023-04-18T16:27:24.767Z,2.50
2023-04-18T16:29:55.906Z,2.90
2023-04-18T16:32:26.580Z,2.60
2023-04-18T16:35:07.812Z,2.60
2023-04-18T16:37:38.925Z,2.90
2023-04-18T16:40:20.649Z,2.90
2023-04-18T16:43:09.297Z,3.00
2023-04-18T16:45:45.843Z,2.80
2023-04-18T16:48:31.015Z,2.70
2023-04-18T16:50:59.345Z,2.50
2023-04-18T16:53:32.452Z,2.70
2023-04-18T16:56:09.276Z,2.40
2023-04-18T16:58:50.425Z,2.50
2023-04-18T17:01:52.497Z,2.70
2023-04-18T17:04:32.978Z,2.60
2023-04-18T17:07:06.502Z,2.70
2023-04-18T17:09:42.622Z,2.70
2023-04-18T17:12:13.860Z,2.60
2023-04-18T17:14:42.395Z,3.00
2023-04-18T17:17:14.281Z,2.70
2023-04-18T17:20:01.219Z,2.30
2023-04-18T17:22:32.023Z,2.80
2023-04-18T17:25:02.000Z,2.80
2023-04-18T17:27:30.502Z,2.90
2023-04-18T17:29:59.182Z,3.00
2023-04-18T17:32:29.725Z,2.70
2023-04-18T17:34:58.560Z,2.90
2023-04-18T17:37:55.286Z,3.00
2023-04-18T17:40:40.134Z,2.90
2023-04-18T17:43:45.914Z,3.00
2023-04-18T17:46:30.376Z,3.00
2023-04-18T17:49:24.550Z,2.90
2023-04-18T17:52:18.040Z,3.20
2023-04-18T17:55:26.739Z,2.50
2023-04-18T17:58:18.349Z,2.60
2023-04-18T18:01:30.621Z,2.50
2023-04-18T18:04:19.894Z,2.60
2023-04-18T18:07:23.832Z,2.90
2023-04-18T18:10:19.044Z,2.50
2023-04-18T18:13:15.288Z,2.40
2023-04-18T18:15:54.535Z,2.60
2023-04-18T18:19:02.172Z,2.90
2023-04-18T18:21:56.211Z,2.80
2023-04-18T18:24:55.457Z,2.90
2023-04-18T18:27:46.823Z,3.60
2023-04-18T18:30:31.230Z,3.10
2023-04-18T18:33:18.148Z,2.80
2023-04-18T18:36:20.686Z,3.20
2023-04-18T18:39:10.446Z,3.20
2023-04-18T18:42:03.156Z,3.30
2023-04-18T18:45:05.506Z,3.60
2023-04-18T18:47:50.396Z,3.50
2023-04-18T18:50:57.381Z,3.50
2023-04-18T18:54:19.252Z,3.90
2023-04-18T18:57:04.647Z,4.00
2023-04-18T18:59:36.050Z,3.70
2023-04-18T19:02:27.067Z,3.70
2023-04-18T19:05:26.790Z,3.20
2023-04-18T19:08:11.897Z,3.80
2023-04-18T19:10:53.864Z,3.50
2023-04-18T19:13:27.080Z,3.30
2023-04-18T19:15:58.755Z,3.50
2023-04-18T19:18:27.496Z,3.40
2023-04-18T19:21:10.663Z,3.70
2023-04-18T19:23:38.944Z,3.30
2023-04-18T19:26:35.348Z,3.50
2023-04-18T19:29:11.185Z,3.50
2023-04-18T19:32:03.205Z,3.80
2023-04-18T19:34:58.169Z,3.70
2023-04-18T19:37:47.316Z,3.40
2023-04-18T19:40:31.014Z,4.10
2023-04-18T19:43:04.986Z,3.50
2023-04-18T19:45:36.506Z,4.40
2023-04-18T19:48:13.267Z,4.00
2023-04-18T19:51:00.350Z,4.40
2023-04-18T19:53:45.171Z,4.40
2023-04-18T19:56:28.983Z,4.50
2023-04-18T19:58:59.696Z,4.10
2023-04-18T20:04:10.442Z,3.90
2023-04-18T20:06:45.469Z,3.80
2023-04-18T20:09:34.024Z,4.30
2023-04-18T20:12:19.212Z,4.20
2023-04-18T20:15:12.993Z,4.10
2023-04-18T20:17:43.587Z,4.30
2023-04-18T20:20:15.375Z,4.50
2023-04-18T20:22:44.840Z,4.40
2023-04-18T20:25:21.328Z,4.80
2023-04-18T20:27:50.024Z,4.40
2023-04-18T20:30:36.234Z,4.80
2023-04-18T20:33:13.161Z,5.00
2023-04-18T20:35:41.810Z,5.40
2023-04-18T20:38:11.385Z,4.80
2023-04-18T20:40:39.901Z,5.00
2023-04-18T20:43:08.268Z,4.60
2023-04-18T20:45:54.963Z,4.60
2023-04-18T20:48:32.150Z,4.90
2023-04-18T20:51:16.398Z,5.10
2023-04-18T20:54:18.020Z,4.70
2023-04-18T20:57:02.628Z,4.90
2023-04-18T20:59:37.266Z,4.50
2023-04-18T21:02:11.225Z,4.50
2023-04-18T21:04:46.757Z,5.40
2023-04-18T21:07:24.401Z,4.90
2023-04-18T21:09:55.637Z,5.10
2023-04-18T21:12:32.467Z,4.90
2023-04-18T21:15:03.709Z,5.50
2023-04-18T21:17:40.693Z,5.20
2023-04-18T21:20:17.083Z,5.50
2023-04-18T21:22:59.353Z,5.10
2023-04-18T21:25:33.692Z,5.20
2023-04-18T21:28:13.451Z,5.60
2023-04-18T21:30:57.592Z,5.60
2023-04-18T21:33:42.108Z,5.70
2023-04-18T21:36:18.918Z,5.60
2023-04-18T21:39:00.551Z,5.40
2023-04-18T21:41:40.532Z,5.60
2023-04-18T21:44:18.840Z,5.40
2023-04-18T21:47:16.032Z,5.30
2023-04-18T21:49:55.912Z,5.90
2023-04-18T21:52:50.315Z,5.30
2023-04-18T21:55:24.204Z,5.40
2023-04-18T21:58:09.557Z,5.80
2023-04-18T22:00:56.314Z,5.90
2023-04-18T22:03:37.906Z,5.90
2023-04-18T22:06:12.618Z,6.00
2023-04-18T22:09:01.079Z,5.60
2023-04-18T22:11:38.607Z,5.60
2023-04-18T22:14:12.435Z,5.70
2023-04-18T22:16:59.747Z,5.60
2023-04-18T22:19:45.021Z,5.50
2023-04-18T22:22:21.256Z,5.40
2023-04-18T22:25:07.376Z,5.80
2023-04-18T22:27:45.207Z,6.10
2023-04-18T22:30:24.078Z,5.70
2023-04-18T22:33:03.991Z,5.60
2023-04-18T22:35:46.338Z,5.50
2023-04-18T22:38:28.116Z,6.30
2023-04-18T22:41:13.263Z,5.50
2023-04-18T22:43:43.897Z,5.70
2023-04-18T22:46:33.457Z,5.60
2023-04-18T22:49:10.714Z,5.80
2023-04-18T22:51:46.591Z,6.40
2023-04-18T22:54:31.716Z,5.70
2023-04-18T22:57:14.092Z,6.20
2023-04-18T22:59:47.646Z,6.60
2023-04-18T23:02:24.694Z,6.50
2023-04-18T23:05:04.411Z,6.00
2023-04-18T23:07:52.935Z,6.10
2023-04-18T23:10:36.924Z,7.10
2023-04-18T23:13:15.713Z,6.00
2023-04-18T23:16:14.976Z,6.20
2023-04-18T23:19:02.128Z,5.90
2023-04-18T23:21:51.277Z,5.80
2023-04-18T23:24:39.147Z,5.50
2023-04-18T23:27:24.789Z,5.40
2023-04-18T23:30:04.345Z,5.70
2023-04-18T23:32:43.337Z,5.70
2023-04-18T23:35:20.192Z,5.20
2023-04-18T23:38:03.734Z,5.60
2023-04-18T23:40:48.523Z,6.00
2023-04-18T23:43:30.463Z,5.60
2023-04-18T23:46:21.261Z,5.30
2023-04-18T23:49:03.703Z,5.20
2023-04-18T23:51:49.818Z,5.50
2023-04-18T23:54:33.214Z,5.60
2023-04-18T23:57:16.230Z,5.10
2023-04-18T23:59:53.103Z,5.30
